createdAt,value
2019-02-16T00:02:23.366Z,4.60
2019-02-16T00:04:56.765Z,6.57
2019-02-16T00:07:29.954Z,4.60
2019-02-16T00:10:03.291Z,4.83
2019-02-16T00:12:37.645Z,4.47
2019-02-16T00:15:11.286Z,3.97
2019-02-16T00:17:44.309Z,6.37
2019-02-16T00:20:17.887Z,4.87
2019-02-16T00:22:50.951Z,3.33
2019-02-16T00:25:24.131Z,3.15
2019-02-16T00:27:57.288Z,3.55
2019-02-16T00:30:30.690Z,2.70
2019-02-16T00:33:03.921Z,2.80
2019-02-16T00:35:37.122Z,2.87
2019-02-16T00:38:10.312Z,3.05
2019-02-16T00:40:43.693Z,2.87
2019-02-16T00:43:17.110Z,2.87
2019-02-16T00:45:50.338Z,2.52
2019-02-16T00:48:23.744Z,2.67
2019-02-16T00:50:56.949Z,2.47
2019-02-16T00:53:30.192Z,2.22
2019-02-16T01:03:40.304Z,3.20
2019-02-16T01:06:13.717Z,2.47
2019-02-16T01:08:47.078Z,2.83
2019-02-16T01:11:21.280Z,3.25
2019-02-16T01:13:54.729Z,3.47
2019-02-16T01:16:27.954Z,3.08
2019-02-16T01:19:01.282Z,4.57
2019-02-16T01:21:34.888Z,3.55
2019-02-16T01:24:08.280Z,3.80
2019-02-16T01:28:24.776Z,4.83
2019-02-16T01:30:57.967Z,5.30
2019-02-16T01:41:09.960Z,2.83
2019-02-16T01:46:14.302Z,2.70
2019-02-16T01:48:47.705Z,2.70
2019-02-16T01:51:20.959Z,4.60
2019-02-16T01:53:54.370Z,3.57
2019-02-16T01:56:27.964Z,2.77
2019-02-16T02:01:33.281Z,3.40
2019-02-16T02:04:06.701Z,3.27
2019-02-16T02:06:39.967Z,3.37
2019-02-16T02:09:13.927Z,3.70
2019-02-16T02:14:19.417Z,2.87
2019-02-16T02:16:52.780Z,2.73
2019-02-16T02:19:26.298Z,2.30
2019-02-16T02:21:59.770Z,2.37
2019-02-16T02:24:33.143Z,2.40
2019-02-16T02:27:06.518Z,2.23
2019-02-16T02:29:39.947Z,2.25
2019-02-16T02:37:31.135Z,2.70
2019-02-16T02:40:04.865Z,2.55
2019-02-16T02:42:38.304Z,2.52
2019-02-16T02:45:12.382Z,2.40
2019-02-16T02:47:45.964Z,2.30
2019-02-16T02:52:51.301Z,3.13
2019-02-16T02:55:24.711Z,2.10
2019-02-16T02:57:57.969Z,2.03
2019-02-16T03:03:03.277Z,2.20
2019-02-16T03:05:36.658Z,2.10
2019-02-16T03:08:10.149Z,2.05
2019-02-16T03:10:43.431Z,2.25
2019-02-16T03:13:16.968Z,1.90
2019-02-16T03:18:22.302Z,2.27
2019-02-16T03:20:55.962Z,2.17
2019-02-16T03:26:49.291Z,1.85
2019-02-16T03:29:41.301Z,2.20
2019-02-16T03:33:00.313Z,2.43
2019-02-16T03:36:14.407Z,2.43
2019-02-16T03:39:12.288Z,2.20
2019-02-16T03:41:45.745Z,1.80
2019-02-16T03:44:22.144Z,2.30
2019-02-16T03:46:56.433Z,2.27
2019-02-16T03:49:29.975Z,3.17
2019-02-16T03:54:34.997Z,2.50
2019-02-16T04:04:44.352Z,2.52
2019-02-16T04:07:17.810Z,2.17
2019-02-16T04:09:51.285Z,2.37
2019-02-16T04:12:24.694Z,2.43
2019-02-16T04:14:58.262Z,1.75
2019-02-16T04:17:31.297Z,2.70
2019-02-16T04:20:04.669Z,2.10
2019-02-16T04:22:37.955Z,1.97
2019-02-16T04:30:15.311Z,1.97
2019-02-16T04:32:48.801Z,2.00
2019-02-16T04:42:58.139Z,1.90
2019-02-16T04:53:07.279Z,1.70
2019-02-16T04:55:40.687Z,1.83
2019-02-16T04:58:13.892Z,2.00
2019-02-16T05:03:19.251Z,1.37
2019-02-16T05:05:52.392Z,1.73
2019-02-16T05:08:25.767Z,2.13
2019-02-16T05:10:59.125Z,13.10
2019-02-16T05:13:32.684Z,2.00
2019-02-16T05:16:06.281Z,1.33
2019-02-16T05:18:39.741Z,1.50
2019-02-16T05:21:13.112Z,1.23
2019-02-16T05:26:18.283Z,1.17
2019-02-16T05:28:52.651Z,2.67
2019-02-16T05:31:25.963Z,3.40
2019-02-16T05:36:31.278Z,1.12
2019-02-16T05:39:05.506Z,1.20
2019-02-16T05:41:38.799Z,1.23
2019-02-16T05:44:12.280Z,1.10
2019-02-16T05:46:45.319Z,1.50
2019-02-16T05:51:50.634Z,0.80
2019-02-16T05:54:24.012Z,1.00
2019-02-16T05:56:57.282Z,1.10
2019-02-16T06:04:34.129Z,1.07
2019-02-16T06:07:07.281Z,1.10
2019-02-16T06:09:41.674Z,1.00
2019-02-16T06:12:15.950Z,17.90
2019-02-16T06:14:49.282Z,6.37
2019-02-16T06:17:22.657Z,2.43
2019-02-16T06:19:57.606Z,5.00
2019-02-16T06:22:31.259Z,1.27
2019-02-16T06:25:10.631Z,1.73
2019-02-16T06:27:43.961Z,2.00
2019-02-16T06:32:49.282Z,1.57
2019-02-16T06:35:28.530Z,1.20
2019-02-16T06:38:02.944Z,1.63
2019-02-16T06:43:09.116Z,1.50
2019-02-16T06:48:14.140Z,1.27
2019-02-16T06:50:47.701Z,1.50
2019-02-16T06:53:21.977Z,1.70
2019-02-16T06:58:34.625Z,1.53
2019-02-16T07:01:07.957Z,1.17
2019-02-16T07:06:13.130Z,1.03
2019-02-16T07:08:46.355Z,2.80
2019-02-16T07:11:19.695Z,1.40
2019-02-16T07:13:52.952Z,1.47
2019-02-16T07:16:39.781Z,1.82
2019-02-16T07:19:27.878Z,2.83
2019-02-16T07:24:42.359Z,2.77
2019-02-16T07:27:15.690Z,1.70
2019-02-16T07:29:48.950Z,1.50
2019-02-16T07:36:15.556Z,1.30
2019-02-16T07:38:48.947Z,3.83
2019-02-16T07:41:22.272Z,2.52
2019-02-16T07:44:23.259Z,2.07
2019-02-16T07:47:01.592Z,2.40
2019-02-16T07:49:50.668Z,1.95
2019-02-16T07:52:40.281Z,1.77
2019-02-16T07:55:38.376Z,3.23
2019-02-16T07:58:16.473Z,6.93
2019-02-16T08:01:00.768Z,2.47
2019-02-16T08:03:52.582Z,2.58
2019-02-16T08:06:40.285Z,1.50
2019-02-16T08:09:20.641Z,2.17
2019-02-16T08:12:09.655Z,1.30
2019-02-16T08:15:07.435Z,1.30
2019-02-16T08:17:46.768Z,1.73
2019-02-16T08:20:37.277Z,1.47
2019-02-16T08:26:46.701Z,2.10
2019-02-16T08:29:50.676Z,2.73
2019-02-16T08:32:36.280Z,1.67
2019-02-16T08:35:35.296Z,3.60
2019-02-16T08:38:25.877Z,1.80
2019-02-16T08:41:23.797Z,2.50
2019-02-16T08:44:17.648Z,3.50
2019-02-16T08:53:13.266Z,3.73
2019-02-16T08:56:17.388Z,5.73
2019-02-16T08:59:09.409Z,4.47
2019-02-16T09:02:10.449Z,4.27
2019-02-16T09:05:21.255Z,1.50
2019-02-16T09:08:09.600Z,1.43
2019-02-16T09:11:05.724Z,1.37
2019-02-16T09:14:06.785Z,1.45
2019-02-16T09:17:13.876Z,8.83
2019-02-16T09:23:09.610Z,6.50
2019-02-16T09:26:04.623Z,4.17
2019-02-16T09:28:53.484Z,3.98
2019-02-16T09:31:39.344Z,3.37
2019-02-16T09:34:28.411Z,4.97
2019-02-16T09:37:29.311Z,3.83
2019-02-16T09:40:22.553Z,3.73
2019-02-16T09:43:26.943Z,2.72
2019-02-16T09:49:12.356Z,2.60
2019-02-16T09:51:52.201Z,2.60
2019-02-16T09:54:45.732Z,2.90
2019-02-16T09:57:40.553Z,2.72
2019-02-16T10:00:41.791Z,2.83
2019-02-16T10:03:24.479Z,2.03
2019-02-16T10:06:16.477Z,2.00
2019-02-16T10:09:07.534Z,2.20
2019-02-16T10:11:59.705Z,2.30
2019-02-16T10:14:48.811Z,2.23
2019-02-16T10:17:40.615Z,1.77
2019-02-16T10:20:48.259Z,2.17
2019-02-16T10:23:38.978Z,3.50
2019-02-16T10:26:26.642Z,2.23
2019-02-16T10:29:20.358Z,2.60
2019-02-16T10:32:08.668Z,2.08
2019-02-16T10:35:09.876Z,3.80
2019-02-16T10:41:04.823Z,3.80
2019-02-16T10:46:45.931Z,3.03
2019-02-16T10:49:41.605Z,2.27
2019-02-16T10:52:46.126Z,1.70
2019-02-16T10:55:37.275Z,3.07
2019-02-16T10:58:35.346Z,6.10
2019-02-16T11:01:27.777Z,1.63
2019-02-16T11:06:56.779Z,1.90
2019-02-16T11:15:42.645Z,2.10
2019-02-16T11:18:34.739Z,2.08
2019-02-16T11:21:20.288Z,3.17
2019-02-16T11:24:18.768Z,2.62
2019-02-16T11:27:10.779Z,2.00
2019-02-16T11:30:05.701Z,3.00
2019-02-16T11:32:57.724Z,2.57
2019-02-16T11:35:40.425Z,2.57
2019-02-16T11:38:36.872Z,2.33
2019-02-16T11:42:16.261Z,6.03
2019-02-16T11:44:58.447Z,1.90
2019-02-16T11:49:42.887Z,1.50
2019-02-16T11:52:34.683Z,1.80
2019-02-16T11:55:32.805Z,2.67
2019-02-16T11:58:24.676Z,2.50
2019-02-16T12:01:16.533Z,2.30
2019-02-16T12:04:01.811Z,1.40
2019-02-16T12:06:45.273Z,2.30
2019-02-16T12:09:36.398Z,3.10
2019-02-16T12:12:24.489Z,1.70
2019-02-16T12:15:23.277Z,5.23
2019-02-16T12:18:07.749Z,11.43
2019-02-16T12:24:08.405Z,5.67
2019-02-16T12:27:00.577Z,2.40
2019-02-16T12:29:57.808Z,1.55
2019-02-16T12:32:46.261Z,4.37
2019-02-16T12:35:31.262Z,5.70
2019-02-16T12:38:19.940Z,1.50
2019-02-16T12:41:10.634Z,1.62
2019-02-16T12:44:05.552Z,5.90
2019-02-16T12:46:47.700Z,3.53
2019-02-16T12:50:45.283Z,6.03
2019-02-16T12:53:47.502Z,7.20
2019-02-16T12:56:33.532Z,3.20
2019-02-16T12:59:15.973Z,17.15
2019-02-16T13:02:26.346Z,3.07
2019-02-16T13:05:33.951Z,5.73
2019-02-16T13:08:13.887Z,4.20
2019-02-16T13:10:57.491Z,5.05
2019-02-16T13:13:51.300Z,4.83
2019-02-16T13:16:42.562Z,13.13
2019-02-16T13:19:37.625Z,6.47
2019-02-16T13:22:19.541Z,6.87
2019-02-16T13:25:08.336Z,8.33
2019-02-16T13:28:08.631Z,6.50
2019-02-16T13:30:59.294Z,5.77
2019-02-16T13:33:50.349Z,7.67
2019-02-16T13:36:35.871Z,6.47
2019-02-16T13:42:05.917Z,8.27
2019-02-16T13:44:45.082Z,9.90
2019-02-16T13:47:36.300Z,6.83
2019-02-16T13:50:16.686Z,9.20
2019-02-16T13:52:57.273Z,6.37
2019-02-16T13:55:48.294Z,13.03
2019-02-16T13:58:38.279Z,7.30
2019-02-16T14:01:39.475Z,7.90
2019-02-16T14:04:23.714Z,14.75
2019-02-16T14:07:18.565Z,7.63
2019-02-16T14:10:10.523Z,11.00
2019-02-16T14:13:09.945Z,5.77
2019-02-16T14:16:07.941Z,16.10
2019-02-16T14:18:41.281Z,9.73
2019-02-16T14:21:14.652Z,8.67
2019-02-16T14:23:48.282Z,13.40
2019-02-16T14:26:21.682Z,14.87
2019-02-16T14:28:55.131Z,12.55
2019-02-16T14:31:28.873Z,20.57
2019-02-16T14:34:02.304Z,10.00
2019-02-16T14:36:35.749Z,10.20
2019-02-16T14:39:29.872Z,16.10
2019-02-16T14:42:03.504Z,11.33
2019-02-16T14:44:37.278Z,11.63
2019-02-16T14:47:10.423Z,11.23
2019-02-16T14:49:44.123Z,11.83
2019-02-16T14:52:17.649Z,16.07
2019-02-16T14:54:51.994Z,18.27
2019-02-16T14:57:26.539Z,9.63
2019-02-16T15:00:04.784Z,15.95
2019-02-16T15:02:39.725Z,13.78
2019-02-16T15:05:13.446Z,13.27
2019-02-16T15:07:47.286Z,9.57
2019-02-16T15:10:20.980Z,10.27
2019-02-16T15:12:54.551Z,23.50
2019-02-16T15:15:28.290Z,11.17
2019-02-16T15:18:03.742Z,16.93
2019-02-16T15:23:11.398Z,14.40
2019-02-16T15:25:45.968Z,14.97
2019-02-16T15:28:19.930Z,11.68
2019-02-16T15:33:25.677Z,16.80
2019-02-16T15:35:59.557Z,8.87
2019-02-16T15:38:33.283Z,14.57
2019-02-16T15:41:06.719Z,13.00
2019-02-16T15:43:40.941Z,15.67
2019-02-16T15:46:14.597Z,16.73
2019-02-16T15:48:48.933Z,13.97
2019-02-16T15:51:22.268Z,15.58
2019-02-16T15:53:55.627Z,18.03
2019-02-16T15:56:29.074Z,15.23
2019-02-16T16:01:30.707Z,16.67
2019-02-16T16:04:04.121Z,16.73
2019-02-16T16:06:38.293Z,20.08
2019-02-16T16:09:36.940Z,12.27
2019-02-16T16:12:37.661Z,18.30
2019-02-16T16:15:22.262Z,15.98
2019-02-16T16:18:23.284Z,16.62
2019-02-16T16:21:14.099Z,11.83
2019-02-16T16:24:06.281Z,19.75
2019-02-16T16:26:57.276Z,13.10
2019-02-16T16:29:48.283Z,16.77
2019-02-16T16:32:40.284Z,6.20
2019-02-16T16:35:35.117Z,14.20
2019-02-16T16:38:30.289Z,9.53
2019-02-16T16:41:28.718Z,11.60
2019-02-16T16:44:19.280Z,9.77
2019-02-16T16:47:10.276Z,18.63
2019-02-16T16:50:05.646Z,13.22
2019-02-16T16:52:51.105Z,84.65
2019-02-16T16:55:45.468Z,12.10
2019-02-16T16:58:43.532Z,24.32
2019-02-16T17:01:27.938Z,14.60
2019-02-16T17:07:01.619Z,22.83
2019-02-16T17:09:57.150Z,11.90
2019-02-16T17:15:39.637Z,18.53
2019-02-16T17:18:22.643Z,18.60
2019-02-16T17:21:14.682Z,18.90
2019-02-16T17:24:09.352Z,11.85
2019-02-16T17:27:13.562Z,17.77
2019-02-16T17:30:04.696Z,12.70
2019-02-16T17:33:00.273Z,17.90
2019-02-16T17:35:47.336Z,17.20
2019-02-16T17:42:46.399Z,15.70
2019-02-16T17:45:44.654Z,21.60
2019-02-16T17:48:55.125Z,13.27
2019-02-16T17:51:55.747Z,18.67
2019-02-16T17:55:00.389Z,19.65
2019-02-16T17:57:38.802Z,13.97
2019-02-16T18:00:44.952Z,13.40
2019-02-16T18:03:42.739Z,13.90
2019-02-16T18:06:25.623Z,18.85
2019-02-16T18:09:26.882Z,16.95
2019-02-16T18:12:31.301Z,16.43
2019-02-16T18:15:30.279Z,16.30
2019-02-16T18:18:15.868Z,16.30
2019-02-16T18:26:17.345Z,17.80
2019-02-16T18:29:00.736Z,15.50
2019-02-16T18:31:52.639Z,15.40
2019-02-16T18:35:00.312Z,14.28
2019-02-16T18:37:44.619Z,14.13
2019-02-16T18:40:42.282Z,11.47
2019-02-16T18:43:27.295Z,11.73
2019-02-16T18:46:25.382Z,13.87
2019-02-16T18:49:21.599Z,14.58
2019-02-16T18:52:12.302Z,13.03
2019-02-16T18:54:58.413Z,20.23
2019-02-16T18:57:53.400Z,11.60
2019-02-16T19:00:45.282Z,19.93
2019-02-16T19:03:32.551Z,21.47
2019-02-16T19:06:27.315Z,15.00
2019-02-16T19:09:16.941Z,13.97
2019-02-16T19:15:07.734Z,13.22
2019-02-16T19:17:56.552Z,14.97
2019-02-16T19:20:51.345Z,38.30
2019-02-16T19:23:58.652Z,21.83
2019-02-16T19:26:56.348Z,10.28
2019-02-16T19:29:54.755Z,16.93
2019-02-16T19:32:35.637Z,24.70
2019-02-16T19:38:15.357Z,16.67
2019-02-16T19:41:09.937Z,10.70
2019-02-16T19:44:11.094Z,11.63
2019-02-16T19:50:11.947Z,15.83
2019-02-16T19:53:02.619Z,15.00
2019-02-16T19:55:49.532Z,12.60
2019-02-16T19:58:38.340Z,13.53
2019-02-16T20:01:21.904Z,15.20
2019-02-16T20:04:12.735Z,14.13
2019-02-16T20:06:59.269Z,16.45
2019-02-16T20:09:50.285Z,18.43
2019-02-16T20:12:48.341Z,16.82
2019-02-16T20:15:40.395Z,17.20
2019-02-16T20:18:32.283Z,19.53
2019-02-16T20:21:36.570Z,23.60
2019-02-16T20:24:40.780Z,15.08
2019-02-16T20:27:51.264Z,19.30
2019-02-16T20:30:46.947Z,22.33
2019-02-16T20:33:37.391Z,20.65
2019-02-16T20:36:28.679Z,15.83
2019-02-16T20:39:09.688Z,12.67
2019-02-16T20:42:01.568Z,11.43
2019-02-16T20:44:46.661Z,15.58
2019-02-16T20:47:32.886Z,14.13
2019-02-16T20:50:30.377Z,8.07
2019-02-16T20:53:25.474Z,10.75
2019-02-16T20:56:20.315Z,12.70
2019-02-16T20:59:10.950Z,7.73
2019-02-16T21:01:55.566Z,9.10
2019-02-16T21:04:57.966Z,9.35
2019-02-16T21:07:48.608Z,17.57
2019-02-16T21:10:52.602Z,6.87
2019-02-16T21:13:31.282Z,11.40
2019-02-16T21:16:33.671Z,13.80
2019-02-16T21:19:37.942Z,14.65
2019-02-16T21:22:32.943Z,10.10
2019-02-16T21:25:21.945Z,11.07
2019-02-16T21:28:16.675Z,10.93
2019-02-16T21:31:11.618Z,12.33
2019-02-16T21:34:05.715Z,10.40
2019-02-16T21:37:10.157Z,13.73
2019-02-16T21:39:58.290Z,29.73
2019-02-16T21:42:50.545Z,11.53
2019-02-16T21:45:32.532Z,11.50
2019-02-16T21:48:17.865Z,11.93
2019-02-16T21:51:15.712Z,8.43
2019-02-16T21:54:10.657Z,10.20
2019-02-16T21:57:01.273Z,13.40
2019-02-16T22:00:02.610Z,11.40
2019-02-16T22:02:58.341Z,17.03
2019-02-16T22:09:04.954Z,14.63
2019-02-16T22:14:32.129Z,9.25
2019-02-16T22:17:05.275Z,10.17
2019-02-16T22:19:38.271Z,11.50
2019-02-16T22:22:11.286Z,9.60
2019-02-16T22:24:44.675Z,10.47
2019-02-16T22:27:17.922Z,6.70
2019-02-16T22:32:38.676Z,9.07
2019-02-16T22:35:13.286Z,7.95
2019-02-16T22:37:46.380Z,7.77
2019-02-16T22:40:19.694Z,12.07
2019-02-16T22:42:52.971Z,7.27
2019-02-16T22:45:26.606Z,7.92
2019-02-16T22:48:01.269Z,7.60
2019-02-16T22:50:34.797Z,8.07
2019-02-16T22:53:08.295Z,7.30
2019-02-16T22:55:41.952Z,8.57
2019-02-16T23:00:50.297Z,8.10
2019-02-16T23:03:23.946Z,10.35
2019-02-16T23:05:57.294Z,4.73
2019-02-16T23:08:30.888Z,3.50
2019-02-16T23:11:04.696Z,6.07
2019-02-16T23:13:38.285Z,7.47
2019-02-16T23:16:11.947Z,7.73
2019-02-16T23:18:45.342Z,6.50
2019-02-16T23:21:18.958Z,8.37
2019-02-16T23:23:52.314Z,5.43
2019-02-16T23:26:26.273Z,7.33
2019-02-16T23:28:59.297Z,5.25
2019-02-16T23:31:32.743Z,4.77
2019-02-16T23:34:06.285Z,7.83
2019-02-16T23:36:39.692Z,4.57
2019-02-16T23:39:14.281Z,6.08
2019-02-16T23:41:47.948Z,5.00
2019-02-16T23:44:21.321Z,5.83
2019-02-16T23:46:54.892Z,7.40
2019-02-16T23:52:00.282Z,6.00
2019-02-16T23:54:33.604Z,6.20
2019-02-16T23:57:06.940Z,10.78
2019-02-16T23:59:40.292Z,3.42
